D/T METAR WX W/DIR W/SPE G/SPE TEMP DEWP
13/07/20 15:50 EGGD 131450Z AUTO 26011KT 9999 SCT029 BKN037 17/14 Q1023 W (260°) 12.7mph 17°C 14°C
13/07/20 15:20 EGGD 131420Z AUTO 27009KT 9999 SCT026/// SCT037/// //////TCU 16/13 Q1023 RERA W (270°) 10.4mph 16°C 13°C
13/07/20 14:50 EGGD 131350Z AUTO 26010KT 2300 RA FEW017/// SCT022/// BKN028/// //////CB 17/12 Q1023 RA W (260°) 11.5mph 17°C 12°C
13/07/20 14:20 EGGD 131320Z AUTO 26009KT 9999 SCT029/// BKN036/// //////TCU 18/11 Q1023 W (260°) 10.4mph 18°C 11°C
13/07/20 13:50 EGGD 131250Z AUTO 24009KT 9999 SCT033/// //////TCU 18/11 Q1024 WSW (240°) 10.4mph 18°C 11°C
13/07/20 12:50 EGGD 131150Z AUTO 26011KT 9999 BKN030 OVC038 18/09 Q1024 W (260°) 12.7mph 18°C 9°C
13/07/20 12:20 EGGD 131120Z AUTO 26012KT 9999 SCT029 BKN040 18/07 Q1024 W (260°) 13.8mph 18°C 7°C
13/07/20 11:50 EGGD 131050Z AUTO 25012KT 220V280 9999 BKN028 BKN041 18/09 Q1025 WSW (250°) 13.8mph 18°C 9°C
13/07/20 11:20 EGGD 131020Z AUTO 24011KT 9999 OVC042 17/10 Q1025 WSW (240°) 12.7mph 17°C 10°C
13/07/20 10:50 EGGD 130950Z AUTO 25010KT 9999 SCT033 BKN044 17/10 Q1025 WSW (250°) 11.5mph 17°C 10°C
13/07/20 09:50 EGGD 130850Z AUTO 24008KT 9999 FEW049 16/09 Q1025 WSW (240°) 9.2mph 16°C 9°C
13/07/20 09:20 EGGD 130820Z AUTO 24008KT 9999 BKN049 16/09 Q1025 WSW (240°) 9.2mph 16°C 9°C
13/07/20 08:50 EGGD 130750Z AUTO 24010KT 9999 NCD 16/09 Q1025 WSW (240°) 11.5mph 16°C 9°C
13/07/20 08:20 EGGD 130720Z AUTO 24009KT 9999 NCD 15/10 Q1025 WSW (240°) 10.4mph 15°C 10°C
13/07/20 07:50 EGGD 130650Z AUTO 23007KT 9999 SCT048 15/10 Q1025 SW (230°) 8.1mph 15°C 10°C
13/07/20 07:20 EGGD 130620Z AUTO 24009KT 9999 BKN046 14/10 Q1025 WSW (240°) 10.4mph 14°C 10°C
13/07/20 06:50 EGGD 130550Z AUTO 24006KT 9999 NCD 14/10 Q1025 WSW (240°) 6.9mph 14°C 10°C
13/07/20 06:20 EGGD 130520Z AUTO 23006KT 9999 NCD 14/10 Q1025 SW (230°) 6.9mph 14°C 10°C
13/07/20 05:50 EGGD 130450Z AUTO 25005KT 9999 NCD 14/10 Q1025 WSW (250°) 5.8mph 14°C 10°C
13/07/20 05:20 EGGD 130420Z AUTO 25007KT 9999 NCD 13/10 Q1026 WSW (250°) 8.1mph 13°C 10°C
13/07/20 04:50 EGGD 130350Z AUTO 26006KT 9999 NCD 13/10 Q1026 W (260°) 6.9mph 13°C 10°C
13/07/20 04:20 EGGD 130320Z AUTO 25005KT 9999 NCD 13/10 Q1026 WSW (250°) 5.8mph 13°C 10°C
13/07/20 03:50 EGGD 130250Z AUTO 25007KT 9999 NCD 13/10 Q1026 WSW (250°) 8.1mph 13°C 10°C
13/07/20 02:50 EGGD 130150Z AUTO 24005KT 9999 NCD 14/10 Q1027 WSW (240°) 5.8mph 14°C 10°C
13/07/20 01:50 EGGD 130050Z AUTO 23005KT 9999 NCD 14/11 Q1027 SW (230°) 5.8mph 14°C 11°C
13/07/20 01:20 EGGD 130020Z AUTO 25007KT 9999 NCD 13/11 Q1027 WSW (250°) 8.1mph 13°C 11°C
13/07/20 00:50 EGGD 122350Z AUTO 25008KT 9999 NCD 14/11 Q1027 WSW (250°) 9.2mph 14°C 11°C
13/07/20 00:20 EGGD 122320Z AUTO 24007KT 9999 NCD 14/11 Q1027 WSW (240°) 8.1mph 14°C 11°C
12/07/20 23:50 EGGD 122250Z AUTO 24005KT 9999 NCD 14/10 Q1027 WSW (240°) 5.8mph 14°C 10°C
12/07/20 23:20 EGGD 122220Z AUTO 23006KT 9999 NCD 14/11 Q1027 SW (230°) 6.9mph 14°C 11°C
12/07/20 22:20 EGGD 122120Z AUTO 23005KT 9999 NCD 14/11 Q1027 SW (230°) 5.8mph 14°C 11°C
12/07/20 21:50 EGGD 122050Z AUTO 23007KT 9999 NCD 15/11 Q1027 SW (230°) 8.1mph 15°C 11°C
12/07/20 21:20 EGGD 122020Z AUTO 23007KT 9999 NCD 15/10 Q1027 SW (230°) 8.1mph 15°C 10°C
12/07/20 20:50 EGGD 121950Z AUTO 23008KT 9999 NCD 16/10 Q1027 SW (230°) 9.2mph 16°C 10°C
12/07/20 20:20 EGGD 121920Z AUTO 25007KT 9999 NCD 17/09 Q1027 WSW (250°) 8.1mph 17°C 9°C
12/07/20 19:50 EGGD 121850Z AUTO 27008KT 9999 NCD 18/09 Q1027 W (270°) 9.2mph 18°C 9°C
12/07/20 19:20 EGGD 121820Z AUTO 28009KT 9999 NCD 18/08 Q1027 W (280°) 10.4mph 18°C 8°C
12/07/20 18:50 EGGD 121750Z AUTO 28010KT 9999 NCD 19/09 Q1027 W (280°) 11.5mph 19°C 9°C
12/07/20 18:20 EGGD 121720Z AUTO 27010KT 9999 NCD 19/09 Q1027 W (270°) 11.5mph 19°C 9°C
12/07/20 17:50 EGGD 121650Z AUTO 30010KT 9999 NCD 19/08 Q1027 WNW (300°) 11.5mph 19°C 8°C
12/07/20 17:20 EGGD 121620Z AUTO 28010KT 240V310 9999 NCD 20/09 Q1027 W (280°) 11.5mph 20°C 9°C
12/07/20 16:50 EGGD 121550Z AUTO 29009KT 9999 NCD 20/09 Q1028 WNW (290°) 10.4mph 20°C 9°C
12/07/20 16:20 EGGD 121520Z AUTO 28008KT 250V320 9999 NCD 20/10 Q1028 W (280°) 9.2mph 20°C 10°C
12/07/20 15:50 EGGD 121450Z AUTO 26007KT 220V310 9999 NCD 20/10 Q1028 W (260°) 8.1mph 20°C 10°C
12/07/20 15:20 EGGD 121420Z AUTO 27009KT 240V300 9999 NCD 20/09 Q1028 W (270°) 10.4mph 20°C 9°C
12/07/20 14:50 EGGD 121350Z AUTO 29010KT 250V320 9999 NCD 20/10 Q1028 WNW (290°) 11.5mph 20°C 10°C
12/07/20 14:20 EGGD 121320Z AUTO 29008KT 9999 SCT039 19/11 Q1028 WNW (290°) 9.2mph 19°C 11°C
12/07/20 13:50 EGGD 121250Z AUTO 23007KT 140V300 9999 NCD 20/09 Q1029 SW (230°) 8.1mph 20°C 9°C
12/07/20 13:20 EGGD 121220Z AUTO 24006KT 190V300 9999 NCD 20/10 Q1029 WSW (240°) 6.9mph 20°C 10°C
12/07/20 12:50 EGGD 121150Z AUTO 26007KT 220V300 9999 NCD 19/09 Q1029 W (260°) 8.1mph 19°C 9°C
12/07/20 12:20 EGGD 121120Z AUTO VRB06KT 9999 FEW036 19/09 Q1029 N (0°) 6.9mph 19°C 9°C
12/07/20 11:50 EGGD 121050Z AUTO 25005KT 150V320 9999 NCD 18/09 Q1029 WSW (250°) 5.8mph 18°C 9°C
12/07/20 11:20 EGGD 121020Z AUTO VRB05KT 9999 NCD 18/11 Q1029 N (0°) 5.8mph 18°C 11°C
12/07/20 10:50 EGGD 120950Z AUTO 22004KT 140V300 9999 NCD 17/11 Q1029 SW (220°) 4.6mph 17°C 11°C
12/07/20 09:50 EGGD 120850Z AUTO VRB03KT 9999 NCD 16/10 Q1029 N (0°) 3.5mph 16°C 10°C
12/07/20 09:20 EGGD 120820Z AUTO VRB04KT 9999 NCD 15/09 Q1029 N (0°) 4.6mph 15°C 9°C
12/07/20 08:50 EGGD 120750Z AUTO 08005KT 9999 NCD 14/09 Q1029 E (80°) 5.8mph 14°C 9°C
12/07/20 08:20 EGGD 120720Z AUTO 08007KT 9999 NCD 14/08 Q1029 E (80°) 8.1mph 14°C 8°C
12/07/20 07:50 EGGD 120650Z AUTO 08006KT 9999 NCD 13/08 Q1029 E (80°) 6.9mph 13°C 8°C
12/07/20 07:20 EGGD 120620Z AUTO 09006KT 9999 NCD 12/08 Q1029 E (90°) 6.9mph 12°C 8°C
12/07/20 06:50 EGGD 120550Z AUTO 09007KT 9999 NCD 11/08 Q1028 E (90°) 8.1mph 11°C 8°C
12/07/20 06:20 EGGD 120520Z AUTO 09006KT 9999 NCD 10/08 Q1028 E (90°) 6.9mph 10°C 8°C
12/07/20 05:50 EGGD 120450Z AUTO 08005KT 9999 NCD 09/07 Q1028 E (80°) 5.8mph 9°C 7°C
12/07/20 05:20 EGGD 120420Z AUTO 08005KT 9999 NCD 08/07 Q1028 E (80°) 5.8mph 8°C 7°C
12/07/20 04:50 EGGD 120350Z AUTO 09007KT 9999 NCD 08/07 Q1028 E (90°) 8.1mph 8°C 7°C
12/07/20 04:20 EGGD 120320Z AUTO 08005KT 9999 NCD 08/07 Q1028 E (80°) 5.8mph 8°C 7°C
12/07/20 03:50 EGGD 120250Z AUTO 07007KT 9999 NCD 09/08 Q1028 ENE (70°) 8.1mph 9°C 8°C
12/07/20 03:20 EGGD 120220Z AUTO 07008KT 9999 NCD 09/08 Q1028 ENE (70°) 9.2mph 9°C 8°C
12/07/20 02:50 EGGD 120150Z AUTO 07005KT 9999 NCD 10/08 Q1028 ENE (70°) 5.8mph 10°C 8°C
12/07/20 02:20 EGGD 120120Z AUTO 05008KT 9999 NCD 11/08 Q1028 NE (50°) 9.2mph 11°C 8°C
12/07/20 01:50 EGGD 120050Z AUTO 06008KT 9999 NCD 12/08 Q1028 ENE (60°) 9.2mph 12°C 8°C
12/07/20 01:20 EGGD 120020Z AUTO 06007KT 9999 NCD 12/09 Q1028 ENE (60°) 8.1mph 12°C 9°C
12/07/20 00:50 EGGD 112350Z AUTO 03008KT 9999 NCD 13/09 Q1028 NNE (30°) 9.2mph 13°C 9°C
12/07/20 00:20 EGGD 112320Z AUTO 03009KT 9999 NCD 13/09 Q1028 NNE (30°) 10.4mph 13°C 9°C
11/07/20 23:50 EGGD 112250Z AUTO 02007KT 9999 NCD 13/09 Q1028 NNE (20°) 8.1mph 13°C 9°C
11/07/20 22:50 EGGD 112150Z AUTO 29003KT 9999 NCD 12/11 Q1028 WNW (290°) 3.5mph 12°C 11°C
11/07/20 22:20 EGGD 112120Z AUTO 23004KT 9999 NCD 14/11 Q1028 SW (230°) 4.6mph 14°C 11°C
11/07/20 21:20 EGGD 112020Z AUTO 24005KT 7000 NCD 14/11 Q1028 WSW (240°) 5.8mph 14°C 11°C
11/07/20 20:50 EGGD 111950Z AUTO 23006KT 6000 NCD 15/11 Q1028 SW (230°) 6.9mph 15°C 11°C
11/07/20 20:20 EGGD 111920Z AUTO 24006KT 9999 NCD 16/11 Q1028 WSW (240°) 6.9mph 16°C 11°C
11/07/20 19:50 EGGD 111850Z AUTO 24007KT 9999 NCD 16/10 Q1028 WSW (240°) 8.1mph 16°C 10°C
11/07/20 18:50 EGGD 111750Z AUTO 23008KT 210V270 9999 NCD 18/10 Q1028 SW (230°) 9.2mph 18°C 10°C
11/07/20 18:20 EGGD 111720Z AUTO 25009KT 9999 NCD 18/09 Q1028 WSW (250°) 10.4mph 18°C 9°C
11/07/20 17:50 EGGD 111650Z AUTO 26009KT 9999 NCD 18/10 Q1028 W (260°) 10.4mph 18°C 10°C
11/07/20 17:20 EGGD 111620Z AUTO 26009KT 9999 NCD 18/10 Q1028 W (260°) 10.4mph 18°C 10°C
11/07/20 16:50 EGGD 111550Z AUTO 29006KT 250V360 9999 NCD 19/09 Q1028 WNW (290°) 6.9mph 19°C 9°C
11/07/20 16:20 EGGD 111520Z AUTO 26008KT 220V280 9999 FEW046 19/08 Q1028 W (260°) 9.2mph 19°C 8°C
11/07/20 15:50 EGGD 111450Z AUTO VRB07KT 9999 NCD 18/08 Q1028 N (0°) 8.1mph 18°C 8°C
11/07/20 15:20 EGGD 111420Z AUTO 33005KT 260V030 9999 NCD 18/08 Q1028 NNW (330°) 5.8mph 18°C 8°C
11/07/20 14:50 EGGD 111350Z AUTO VRB03KT 9999 BKN039 BKN049 18/08 Q1028 N (0°) 3.5mph 18°C 8°C
11/07/20 14:20 EGGD 111320Z AUTO VRB05KT 9999 NCD 18/08 Q1028 N (0°) 5.8mph 18°C 8°C
11/07/20 13:50 EGGD 111250Z AUTO 31006KT 220V010 9999 FEW034 SCT042 18/10 Q1028 NW (310°) 6.9mph 18°C 10°C
11/07/20 13:20 EGGD 111220Z AUTO 29006KT 250V030 9999 BKN034 BKN046 17/09 Q1028 WNW (290°) 6.9mph 17°C 9°C
11/07/20 12:50 EGGD 111150Z AUTO 26004KT 210V020 9999 SCT035 BKN041 17/09 Q1028 W (260°) 4.6mph 17°C 9°C
11/07/20 12:20 EGGD 111120Z AUTO 29007KT 230V350 9999 SCT032 17/08 Q1028 WNW (290°) 8.1mph 17°C 8°C
11/07/20 11:50 EGGD 111050Z AUTO 29007KT 9999 FEW036 SCT043 16/09 Q1028 WNW (290°) 8.1mph 16°C 9°C